Queen Of Nanaimo — VCNX — position and weather

sailwx.info

Track history (hours):
 
Tides and Currents Weather Stations Pressure Air Temp Water Temp Dewpoint Dewpoint Depression Visibility Wind Speed Wind Dir Waves Ship Positions

Queen Of Nanaimo

Last reported at 2014-Sep-18 09:05 UTC. Time now 2014-Sep-18 09:36 UTC.
Position N 48°51' W 123°27'.

Length 130 m; draft 4 m.

Type: Ship. MMSI: 316001254.

Date/timePositionNaut miles runAvg speedWind from/ knotsBaromVisibWave heightAir tempDewpointWater temp
2014-Sep-18 09:05N 48°51' W 123°27'0 0.0
2014-Sep-18 08:32N 48°51' W 123°27'0 0.0
2014-Sep-18 07:31N 48°51' W 123°27'0 0.0
2014-Sep-18 05:27N 48°51' W 123°27'6 6.7
2014-Sep-18 04:33N 48°48' W 123°19'5 4.8
2014-Sep-18 03:33N 48°53' W 123°19'10 9.5
2014-Sep-18 02:33N 48°60' W 123°09'1 0.6
2014-Sep-18 01:33N 48°60' W 123°08'1010.1
2014-Sep-18 00:33N 48°53' W 123°19'2 1.9
2014-Sep-17 23:30N 48°51' W 123°20'3 3.6
2014-Sep-17 22:34N 48°50' W 123°25'1 0.6
2014-Sep-17 20:08N 48°51' W 123°27'6 7.4
2014-Sep-17 19:19N 48°48' W 123°19'4 4.9
2014-Sep-17 18:33N 48°52' W 123°20'8 8.4
2014-Sep-17 17:34N 48°58' W 123°12'3 3.5
2014-Sep-17 16:33N 49°00' W 123°08'1110.6
2014-Sep-17 15:34N 48°53' W 123°19'2 2.0
2014-Sep-17 14:33N 48°51' W 123°20'3 3.3
2014-Sep-17 13:33N 48°49' W 123°24'2 0.7
2014-Sep-17 10:06N 48°51' W 123°27'0 0.0
2014-Sep-17 09:25N 48°51' W 123°27'0 0.0
2014-Sep-17 08:33N 48°51' W 123°27'0 0.0
2014-Sep-17 07:32N 48°51' W 123°27'0 0.0
2014-Sep-17 06:12N 48°51' W 123°27'0 0.0
2014-Sep-17 05:30N 48°51' W 123°27'5 5.7
2014-Sep-17 04:34N 48°48' W 123°20'5 4.7
2014-Sep-17 03:34N 48°53' W 123°19'1010.4
2014-Sep-17 02:33N 49°00' W 123°08'2 1.8
2014-Sep-17 01:34N 48°59' W 123°09'9 8.6
2014-Sep-17 00:33N 48°53' W 123°19'2 2.0
2014-Sep-16 23:33N 48°51' W 123°20'3 3.3
2014-Sep-16 22:33N 48°50' W 123°25'1 0.6
2014-Sep-16 20:18N 48°51' W 123°27'6 7.9
2014-Sep-16 19:32N 48°48' W 123°19'4 3.6
2014-Sep-16 18:31N 48°51' W 123°21'8 8.3
2014-Sep-16 17:33N 48°58' W 123°13'5 4.7
2014-Sep-16 16:34N 49°00' W 123°08'10 9.8
2014-Sep-16 15:34N 48°53' W 123°18'3 2.8
2014-Sep-16 14:33N 48°51' W 123°20'3 3.1
2014-Sep-16 13:33N 48°50' W 123°25'2 0.6
2014-Sep-16 11:05N 48°51' W 123°27'0 0.0
2014-Sep-16 10:23N 48°51' W 123°27'0 0.0
2014-Sep-16 05:31N 48°51' W 123°27'6 5.3
2014-Sep-16 04:24N 48°48' W 123°19'4 5.0
2014-Sep-16 03:34N 48°52' W 123°18'9 8.9
2014-Sep-16 02:33N 48°59' W 123°10'2 2.0
2014-Sep-16 01:33N 49°00' W 123°08'1110.7
2014-Sep-16 00:33N 48°53' W 123°19'3 2.8
2014-Sep-15 23:33N 48°50' W 123°20'3 1.1
2014-Sep-15 20:18N 48°51' W 123°25'5 6.0
2014-Sep-15 19:33N 48°48' W 123°20'5 4.4
2014-Sep-15 18:30N 48°53' W 123°19'1011.2
2014-Sep-15 17:33N 49°00' W 123°08'0 0.1
2014-Sep-15 16:33N 49°00' W 123°08'1010.4
2014-Sep-15 15:33N 48°53' W 123°19'3 3.3
2014-Sep-15 14:33N 48°49' W 123°20'5 4.2
2014-Sep-15 13:25N 48°51' W 123°27'0 0.1
2014-Sep-15 12:25N 48°51' W 123°27'0 0.0
2014-Sep-15 06:08N 48°51' W 123°27'610.0
2014-Sep-15 05:33N 48°52' W 123°18'1010.5
2014-Sep-15 04:34N 49°00' W 123°08'1312.5
2014-Sep-15 03:33N 48°51' W 123°21'2 2.3
2014-Sep-15 02:33N 48°53' W 123°18'1010.4
2014-Sep-15 01:33N 49°00' W 123°08'7 7.1
2014-Sep-15 00:33N 48°55' W 123°15'5 5.4
2014-Sep-14 23:33N 48°51' W 123°21'4 1.2
2014-Sep-14 20:33N 48°48' W 123°19'3 3.2
2014-Sep-14 19:33N 48°51' W 123°21'8 8.1
2014-Sep-14 18:33N 48°57' W 123°13'5 4.6
2014-Sep-14 17:33N 49°00' W 123°08'1110.7
2014-Sep-14 16:34N 48°53' W 123°19'2 1.9
2014-Sep-14 15:33N 48°51' W 123°20'3 3.4
2014-Sep-14 14:33N 48°49' W 123°24'3 1.8
2014-Sep-14 13:10N 48°51' W 123°27'0 0.0
2014-Sep-14 10:32N 48°51' W 123°27'0 0.0
2014-Sep-14 06:31N 48°51' W 123°27'3 2.8
2014-Sep-14 05:33N 48°51' W 123°23'3 3.0
2014-Sep-14 04:34N 48°53' W 123°19'1110.6
2014-Sep-14 03:33N 49°00' W 123°08'0 0.0
2014-Sep-14 02:33N 49°00' W 123°08'0 0.0
2014-Sep-14 01:33N 49°00' W 123°08'16 3.9
2014-Sep-13 21:32N 48°51' W 123°27'1 1.1
2014-Sep-13 20:27N 48°50' W 123°25'1314.4
2014-Sep-13 19:33N 48°59' W 123°10'2 1.6
2014-Sep-13 18:33N 48°57' W 123°11'9 5.7
2014-Sep-13 17:04N 48°51' W 123°20'2 3.8
2014-Sep-13 16:33N 48°53' W 123°19'1110.8
2014-Sep-13 15:33N 49°00' W 123°08'4 4.1
2014-Sep-13 14:33N 48°57' W 123°12'1111.5
2014-Sep-13 13:33N 48°51' W 123°27'0 0.1
2014-Sep-13 12:16N 48°51' W 123°27'0 0.0
2014-Sep-13 11:33N 48°51' W 123°27'0 0.0
2014-Sep-13 08:19N 48°51' W 123°27'0 0.0
2014-Sep-13 07:22N 48°51' W 123°27'1 0.5
2014-Sep-13 05:09N 48°51' W 123°25'5 7.1
2014-Sep-13 04:27N 48°48' W 123°19'5 5.6
2014-Sep-13 03:33N 48°53' W 123°18'1010.1
2014-Sep-13 02:33N 49°00' W 123°08'8 7.7
2014-Sep-13 01:34N 48°55' W 123°15'4 4.1
2014-Sep-13 00:33N 48°52' W 123°20'6 6.3
2014-Sep-12 23:34N 48°57' W 123°14'6 5.5
2014-Sep-12 22:33N 49°00' W 123°08'1211.6
2014-Sep-12 21:34N 48°51' W 123°19'4 3.6
2014-Sep-12 20:21N 48°50' W 123°25'4 4.9
2014-Sep-12 19:33N 48°49' W 123°20'4 3.8
2014-Sep-12 18:33N 48°53' W 123°19'1110.8
2014-Sep-12 17:34N 49°00' W 123°08'0 0.0
2014-Sep-12 16:33N 49°00' W 123°08'1010.4
2014-Sep-12 15:33N 48°53' W 123°18'2 2.1
2014-Sep-12 14:33N 48°51' W 123°20'3 3.5
2014-Sep-12 13:33N 48°50' W 123°25'2 0.9
2014-Sep-12 11:21N 48°51' W 123°27'1 0.2
2014-Sep-12 05:14N 48°51' W 123°25'4 6.2
2014-Sep-12 04:33N 48°48' W 123°20'4 4.3
2014-Sep-12 03:33N 48°53' W 123°19'10 9.8
2014-Sep-12 02:34N 48°60' W 123°09'1 1.0
2014-Sep-12 01:33N 49°00' W 123°08'1110.7
2014-Sep-12 00:33N 48°53' W 123°19'2 1.7
2014-Sep-11 23:24N 48°51' W 123°20'3 4.0
2014-Sep-11 22:33N 48°49' W 123°25'2 2.1
2014-Sep-11 21:31N 48°51' W 123°27'6 3.1
2014-Sep-11 19:33N 48°48' W 123°19'4 3.8
2014-Sep-11 18:33N 48°52' W 123°20'8 8.5
2014-Sep-11 17:33N 48°58' W 123°12'3 3.4
2014-Sep-11 16:33N 49°00' W 123°08'1110.6
2014-Sep-11 15:33N 48°53' W 123°19'2 1.9
2014-Sep-11 14:31N 48°51' W 123°20'4 3.8
2014-Sep-11 13:33N 48°51' W 123°25'1 1.1
2014-Sep-11 12:32N 48°51' W 123°27'0 0.0
2014-Sep-11 11:30N 48°51' W 123°27'0 0.0
2014-Sep-11 10:28N 48°51' W 123°27'0 0.0
2014-Sep-11 09:32N 48°51' W 123°27'0 0.0
2014-Sep-11 08:31N 48°51' W 123°27'0 0.0
2014-Sep-11 07:19N 48°51' W 123°27'0 0.0
2014-Sep-11 06:15N 48°51' W 123°27'0 0.0
2014-Sep-11 05:31N 48°51' W 123°27'6 5.8
2014-Sep-11 04:28N 48°48' W 123°19'5 5.0
2014-Sep-11 03:33N 48°53' W 123°19'9 8.9
2014-Sep-11 02:33N 48°59' W 123°09'2 1.7
2014-Sep-11 01:33N 49°00' W 123°08'1110.6
2014-Sep-11 00:33N 48°53' W 123°19'3 2.7
2014-Sep-10 23:32N 48°50' W 123°20'3 0.9
2014-Sep-10 20:07N 48°50' W 123°25'5 8.2
2014-Sep-10 19:33N 48°48' W 123°19'5 4.6
2014-Sep-10 18:34N 48°53' W 123°18'10 9.7
2014-Sep-10 17:34N 48°60' W 123°09'1 0.9
2014-Sep-10 16:33N 49°00' W 123°08'1010.5
2014-Sep-10 15:33N 48°53' W 123°18'2 2.0
2014-Sep-10 14:32N 48°51' W 123°20'3 3.5
2014-Sep-10 13:31N 48°50' W 123°25'2 1.7
2014-Sep-10 12:27N 48°51' W 123°27'0 0.0
2014-Sep-10 10:18N 48°51' W 123°27'0 0.0
2014-Sep-10 09:32N 48°51' W 123°27'0 0.0
2014-Sep-10 07:32N 48°51' W 123°27'0 0.0
2014-Sep-10 05:15N 48°51' W 123°27'6 7.5
2014-Sep-10 04:27N 48°48' W 123°19'4 4.0
2014-Sep-10 03:33N 48°52' W 123°20'9 9.1
2014-Sep-10 02:34N 48°58' W 123°10'3 2.6
2014-Sep-10 01:33N 49°00' W 123°08'1110.7
2014-Sep-10 00:33N 48°53' W 123°19'3 2.8
2014-Sep-09 23:32N 48°50' W 123°20'3 2.9
2014-Sep-09 22:29N 48°50' W 123°25'2 1.2
2014-Sep-09 21:07N 48°51' W 123°27'6 3.8
2014-Sep-09 19:33N 48°48' W 123°19'4 3.6
2014-Sep-09 18:33N 48°52' W 123°19'8 8.2
2014-Sep-09 17:33N 48°58' W 123°11'3 3.3
2014-Sep-09 16:33N 49°00' W 123°08'10 9.6
2014-Sep-09 15:33N 48°53' W 123°17'3 2.6
2014-Sep-09 14:29N 48°51' W 123°20'3 3.6
2014-Sep-09 13:33N 48°49' W 123°24'3 2.5
2014-Sep-09 12:20N 48°51' W 123°27'0 0.0
2014-Sep-09 11:17N 48°51' W 123°27'0 0.0
2014-Sep-09 10:04N 48°51' W 123°27'0 0.0
2014-Sep-09 08:32N 48°51' W 123°27'6 1.5
2014-Sep-09 04:24N 48°48' W 123°19'4 4.3
2014-Sep-09 03:34N 48°52' W 123°19'9 9.0
2014-Sep-09 02:33N 48°59' W 123°10'2 2.3
2014-Sep-09 01:33N 49°00' W 123°08'1110.7
2014-Sep-09 00:33N 48°53' W 123°19'2 1.7
2014-Sep-08 23:26N 48°51' W 123°20'4 3.6
2014-Sep-08 22:28N 48°50' W 123°25'0 0.1
2014-Sep-08 20:10N 48°51' W 123°25'5 6.5
2014-Sep-08 19:28N 48°48' W 123°20'5 5.3
2014-Sep-08 18:34N 48°53' W 123°19'8 8.1
2014-Sep-08 17:33N 48°59' W 123°10'2 2.5
2014-Sep-08 16:33N 49°00' W 123°08'1110.7
2014-Sep-08 15:33N 48°53' W 123°19'2 1.8
2014-Sep-08 14:29N 48°51' W 123°20'3 3.7
2014-Sep-08 13:33N 48°50' W 123°25'2 2.0
2014-Sep-08 12:27N 48°51' W 123°27'0 0.0
2014-Sep-08 10:29N 48°51' W 123°27'  
Track history (hours):
 
Tides and Currents Weather Stations Pressure Air Temp Water Temp Dewpoint Dewpoint Depression Visibility Wind Speed Wind Dir Waves Ship Positions

Queen Of Nanaimo

Last reported at 2014-Sep-18 09:05 UTC. Time now 2014-Sep-18 09:36 UTC.
Position N 48°51' W 123°27'.

Length 130 m; draft 4 m.

Type: Ship. MMSI: 316001254.

Date/timePositionNaut miles runAvg speedWind from/ knotsBaromVisibWave heightAir tempDewpointWater temp
2014-Sep-18 09:05N 48°51' W 123°27'0 0.0
2014-Sep-18 08:32N 48°51' W 123°27'0 0.0
2014-Sep-18 07:31N 48°51' W 123°27'0 0.0
2014-Sep-18 05:27N 48°51' W 123°27'6 6.7
2014-Sep-18 04:33N 48°48' W 123°19'5 4.8
2014-Sep-18 03:33N 48°53' W 123°19'10 9.5
2014-Sep-18 02:33N 48°60' W 123°09'1 0.6
2014-Sep-18 01:33N 48°60' W 123°08'1010.1
2014-Sep-18 00:33N 48°53' W 123°19'2 1.9
2014-Sep-17 23:30N 48°51' W 123°20'3 3.6
2014-Sep-17 22:34N 48°50' W 123°25'1 0.6
2014-Sep-17 20:08N 48°51' W 123°27'6 7.4
2014-Sep-17 19:19N 48°48' W 123°19'4 4.9
2014-Sep-17 18:33N 48°52' W 123°20'8 8.4
2014-Sep-17 17:34N 48°58' W 123°12'3 3.5
2014-Sep-17 16:33N 49°00' W 123°08'1110.6
2014-Sep-17 15:34N 48°53' W 123°19'2 2.0
2014-Sep-17 14:33N 48°51' W 123°20'3 3.3
2014-Sep-17 13:33N 48°49' W 123°24'2 0.7
2014-Sep-17 10:06N 48°51' W 123°27'0 0.0
2014-Sep-17 09:25N 48°51' W 123°27'0 0.0
2014-Sep-17 08:33N 48°51' W 123°27'0 0.0
2014-Sep-17 07:32N 48°51' W 123°27'0 0.0
2014-Sep-17 06:12N 48°51' W 123°27'0 0.0
2014-Sep-17 05:30N 48°51' W 123°27'5 5.7
2014-Sep-17 04:34N 48°48' W 123°20'5 4.7
2014-Sep-17 03:34N 48°53' W 123°19'1010.4
2014-Sep-17 02:33N 49°00' W 123°08'2 1.8
2014-Sep-17 01:34N 48°59' W 123°09'9 8.6
2014-Sep-17 00:33N 48°53' W 123°19'2 2.0
2014-Sep-16 23:33N 48°51' W 123°20'3 3.3
2014-Sep-16 22:33N 48°50' W 123°25'1 0.6
2014-Sep-16 20:18N 48°51' W 123°27'6 7.9
2014-Sep-16 19:32N 48°48' W 123°19'4 3.6
2014-Sep-16 18:31N 48°51' W 123°21'8 8.3
2014-Sep-16 17:33N 48°58' W 123°13'5 4.7
2014-Sep-16 16:34N 49°00' W 123°08'10 9.8
2014-Sep-16 15:34N 48°53' W 123°18'3 2.8
2014-Sep-16 14:33N 48°51' W 123°20'3 3.1
2014-Sep-16 13:33N 48°50' W 123°25'2 0.6
2014-Sep-16 11:05N 48°51' W 123°27'0 0.0
2014-Sep-16 10:23N 48°51' W 123°27'0 0.0
2014-Sep-16 05:31N 48°51' W 123°27'6 5.3
2014-Sep-16 04:24N 48°48' W 123°19'4 5.0
2014-Sep-16 03:34N 48°52' W 123°18'9 8.9
2014-Sep-16 02:33N 48°59' W 123°10'2 2.0
2014-Sep-16 01:33N 49°00' W 123°08'1110.7
2014-Sep-16 00:33N 48°53' W 123°19'3 2.8
2014-Sep-15 23:33N 48°50' W 123°20'3 1.1
2014-Sep-15 20:18N 48°51' W 123°25'5 6.0
2014-Sep-15 19:33N 48°48' W 123°20'5 4.4
2014-Sep-15 18:30N 48°53' W 123°19'1011.2
2014-Sep-15 17:33N 49°00' W 123°08'0 0.1
2014-Sep-15 16:33N 49°00' W 123°08'1010.4
2014-Sep-15 15:33N 48°53' W 123°19'3 3.3
2014-Sep-15 14:33N 48°49' W 123°20'5 4.2
2014-Sep-15 13:25N 48°51' W 123°27'0 0.1
2014-Sep-15 12:25N 48°51' W 123°27'0 0.0
2014-Sep-15 06:08N 48°51' W 123°27'610.0
2014-Sep-15 05:33N 48°52' W 123°18'1010.5
2014-Sep-15 04:34N 49°00' W 123°08'1312.5
2014-Sep-15 03:33N 48°51' W 123°21'2 2.3
2014-Sep-15 02:33N 48°53' W 123°18'1010.4
2014-Sep-15 01:33N 49°00' W 123°08'7 7.1
2014-Sep-15 00:33N 48°55' W 123°15'5 5.4
2014-Sep-14 23:33N 48°51' W 123°21'4 1.2
2014-Sep-14 20:33N 48°48' W 123°19'3 3.2
2014-Sep-14 19:33N 48°51' W 123°21'8 8.1
2014-Sep-14 18:33N 48°57' W 123°13'5 4.6
2014-Sep-14 17:33N 49°00' W 123°08'1110.7
2014-Sep-14 16:34N 48°53' W 123°19'2 1.9
2014-Sep-14 15:33N 48°51' W 123°20'3 3.4
2014-Sep-14 14:33N 48°49' W 123°24'3 1.8
2014-Sep-14 13:10N 48°51' W 123°27'0 0.0
2014-Sep-14 10:32N 48°51' W 123°27'0 0.0
2014-Sep-14 06:31N 48°51' W 123°27'3 2.8
2014-Sep-14 05:33N 48°51' W 123°23'3 3.0
2014-Sep-14 04:34N 48°53' W 123°19'1110.6
2014-Sep-14 03:33N 49°00' W 123°08'0 0.0
2014-Sep-14 02:33N 49°00' W 123°08'0 0.0
2014-Sep-14 01:33N 49°00' W 123°08'16 3.9
2014-Sep-13 21:32N 48°51' W 123°27'1 1.1
2014-Sep-13 20:27N 48°50' W 123°25'1314.4
2014-Sep-13 19:33N 48°59' W 123°10'2 1.6
2014-Sep-13 18:33N 48°57' W 123°11'9 5.7
2014-Sep-13 17:04N 48°51' W 123°20'2 3.8
2014-Sep-13 16:33N 48°53' W 123°19'1110.8
2014-Sep-13 15:33N 49°00' W 123°08'4 4.1
2014-Sep-13 14:33N 48°57' W 123°12'1111.5
2014-Sep-13 13:33N 48°51' W 123°27'0 0.1
2014-Sep-13 12:16N 48°51' W 123°27'0 0.0
2014-Sep-13 11:33N 48°51' W 123°27'0 0.0
2014-Sep-13 08:19N 48°51' W 123°27'0 0.0
2014-Sep-13 07:22N 48°51' W 123°27'1 0.5
2014-Sep-13 05:09N 48°51' W 123°25'5 7.1
2014-Sep-13 04:27N 48°48' W 123°19'5 5.6
2014-Sep-13 03:33N 48°53' W 123°18'1010.1
2014-Sep-13 02:33N 49°00' W 123°08'8 7.7
2014-Sep-13 01:34N 48°55' W 123°15'4 4.1
2014-Sep-13 00:33N 48°52' W 123°20'6 6.3
2014-Sep-12 23:34N 48°57' W 123°14'6 5.5
2014-Sep-12 22:33N 49°00' W 123°08'1211.6
2014-Sep-12 21:34N 48°51' W 123°19'4 3.6
2014-Sep-12 20:21N 48°50' W 123°25'4 4.9
2014-Sep-12 19:33N 48°49' W 123°20'4 3.8
2014-Sep-12 18:33N 48°53' W 123°19'1110.8
2014-Sep-12 17:34N 49°00' W 123°08'0 0.0
2014-Sep-12 16:33N 49°00' W 123°08'1010.4
2014-Sep-12 15:33N 48°53' W 123°18'2 2.1
2014-Sep-12 14:33N 48°51' W 123°20'3 3.5
2014-Sep-12 13:33N 48°50' W 123°25'2 0.9
2014-Sep-12 11:21N 48°51' W 123°27'1 0.2
2014-Sep-12 05:14N 48°51' W 123°25'4 6.2
2014-Sep-12 04:33N 48°48' W 123°20'4 4.3
2014-Sep-12 03:33N 48°53' W 123°19'10 9.8
2014-Sep-12 02:34N 48°60' W 123°09'1 1.0
2014-Sep-12 01:33N 49°00' W 123°08'1110.7
2014-Sep-12 00:33N 48°53' W 123°19'2 1.7
2014-Sep-11 23:24N 48°51' W 123°20'3 4.0
2014-Sep-11 22:33N 48°49' W 123°25'2 2.1
2014-Sep-11 21:31N 48°51' W 123°27'6 3.1
2014-Sep-11 19:33N 48°48' W 123°19'4 3.8
2014-Sep-11 18:33N 48°52' W 123°20'8 8.5
2014-Sep-11 17:33N 48°58' W 123°12'3 3.4
2014-Sep-11 16:33N 49°00' W 123°08'1110.6
2014-Sep-11 15:33N 48°53' W 123°19'2 1.9
2014-Sep-11 14:31N 48°51' W 123°20'4 3.8
2014-Sep-11 13:33N 48°51' W 123°25'1 1.1
2014-Sep-11 12:32N 48°51' W 123°27'0 0.0
2014-Sep-11 11:30N 48°51' W 123°27'0 0.0
2014-Sep-11 10:28N 48°51' W 123°27'0 0.0
2014-Sep-11 09:32N 48°51' W 123°27'0 0.0
2014-Sep-11 08:31N 48°51' W 123°27'0 0.0
2014-Sep-11 07:19N 48°51' W 123°27'0 0.0
2014-Sep-11 06:15N 48°51' W 123°27'0 0.0
2014-Sep-11 05:31N 48°51' W 123°27'6 5.8
2014-Sep-11 04:28N 48°48' W 123°19'5 5.0
2014-Sep-11 03:33N 48°53' W 123°19'9 8.9
2014-Sep-11 02:33N 48°59' W 123°09'2 1.7
2014-Sep-11 01:33N 49°00' W 123°08'1110.6
2014-Sep-11 00:33N 48°53' W 123°19'3 2.7
2014-Sep-10 23:32N 48°50' W 123°20'3 0.9
2014-Sep-10 20:07N 48°50' W 123°25'5 8.2
2014-Sep-10 19:33N 48°48' W 123°19'5 4.6
2014-Sep-10 18:34N 48°53' W 123°18'10 9.7
2014-Sep-10 17:34N 48°60' W 123°09'1 0.9
2014-Sep-10 16:33N 49°00' W 123°08'1010.5
2014-Sep-10 15:33N 48°53' W 123°18'2 2.0
2014-Sep-10 14:32N 48°51' W 123°20'3 3.5
2014-Sep-10 13:31N 48°50' W 123°25'2 1.7
2014-Sep-10 12:27N 48°51' W 123°27'0 0.0
2014-Sep-10 10:18N 48°51' W 123°27'0 0.0
2014-Sep-10 09:32N 48°51' W 123°27'0 0.0
2014-Sep-10 07:32N 48°51' W 123°27'0 0.0
2014-Sep-10 05:15N 48°51' W 123°27'6 7.5
2014-Sep-10 04:27N 48°48' W 123°19'4 4.0
2014-Sep-10 03:33N 48°52' W 123°20'9 9.1
2014-Sep-10 02:34N 48°58' W 123°10'3 2.6
2014-Sep-10 01:33N 49°00' W 123°08'1110.7
2014-Sep-10 00:33N 48°53' W 123°19'3 2.8
2014-Sep-09 23:32N 48°50' W 123°20'3 2.9
2014-Sep-09 22:29N 48°50' W 123°25'2 1.2
2014-Sep-09 21:07N 48°51' W 123°27'6 3.8
2014-Sep-09 19:33N 48°48' W 123°19'4 3.6
2014-Sep-09 18:33N 48°52' W 123°19'8 8.2
2014-Sep-09 17:33N 48°58' W 123°11'3 3.3
2014-Sep-09 16:33N 49°00' W 123°08'10 9.6
2014-Sep-09 15:33N 48°53' W 123°17'3 2.6
2014-Sep-09 14:29N 48°51' W 123°20'3 3.6
2014-Sep-09 13:33N 48°49' W 123°24'3 2.5
2014-Sep-09 12:20N 48°51' W 123°27'0 0.0
2014-Sep-09 11:17N 48°51' W 123°27'0 0.0
2014-Sep-09 10:04N 48°51' W 123°27'0 0.0
2014-Sep-09 08:32N 48°51' W 123°27'6 1.5
2014-Sep-09 04:24N 48°48' W 123°19'4 4.3
2014-Sep-09 03:34N 48°52' W 123°19'9 9.0
2014-Sep-09 02:33N 48°59' W 123°10'2 2.3
2014-Sep-09 01:33N 49°00' W 123°08'1110.7
2014-Sep-09 00:33N 48°53' W 123°19'2 1.7
2014-Sep-08 23:26N 48°51' W 123°20'4 3.6
2014-Sep-08 22:28N 48°50' W 123°25'0 0.1
2014-Sep-08 20:10N 48°51' W 123°25'5 6.5
2014-Sep-08 19:28N 48°48' W 123°20'5 5.3
2014-Sep-08 18:34N 48°53' W 123°19'8 8.1
2014-Sep-08 17:33N 48°59' W 123°10'2 2.5
2014-Sep-08 16:33N 49°00' W 123°08'1110.7
2014-Sep-08 15:33N 48°53' W 123°19'2 1.8
2014-Sep-08 14:29N 48°51' W 123°20'3 3.7
2014-Sep-08 13:33N 48°50' W 123°25'2 2.0
2014-Sep-08 12:27N 48°51' W 123°27'0 0.0
2014-Sep-08 10:29N 48°51' W 123°27'  

Dump ship's entire track history